Huslia Airport
PAHL : now visible

Airfield :











YOU CAN JOIN US ON...

 
LOGIN :

Register | Disclaimer

   EN    FR    IT 

 









Legend :    VFR   Marginal VFR   IFR   Intensive IFR   Very Intensive IFR
Visi :
Ceiling :
>= 8 km
>= 3000ft
5 to 8 km
1000 to 3000 ft
1500m to 5 km
500 to 1000 ft
800 to 1500m
200 to 500 ft
< 800m
< 200 ft
Symbols :   Thunderstorms  Fog  Heavy snow  Heavy precipitations  Wind > 20 kt






- Airport Elevation : 220 ft
- IATA code : HLA


PAHL - Huslia

CURRENT METAR :
  • 070104Z AUTO 27005KT 1 1/4SM -SN BKN022 OVC028 M12/M16 A2990 RMK AO2 P0000 FZRANO

EXPIRED METARs :
  • 070056Z AUTO 27006KT 3/4SM -SN BKN022 OVC028 M12/M16 A2990 RMK AO2 SLP133 P0000 T11221156 FZRANO
  • 070049Z AUTO 27005KT 1SM -SN BKN022 OVC029 M12/M16 A2990 RMK AO2 P0000 FZRANO
  • 070039Z AUTO 26005KT 1 1/4SM -SN FEW019 OVC027 M12/M17 A2990 RMK AO2 P0000 FZRANO
  • 070026Z AUTO 26008KT 2 1/2SM -SN SCT019 OVC027 M12/M17 A2989 RMK AO2 P0000 FZRANO
  • 070010Z AUTO 25006KT 1 1/4SM -SN SCT019 OVC029 M12/M17 A2989 RMK AO2 P0000 FZRANO
  • 062356Z AUTO 25008KT 2 1/2SM -SN BKN019 OVC027 M12/M17 A2989 RMK AO2 VIS 2V3 SLP127 P0000 60000 T11221167 11117 21144 51021 FZRANO
  • 062337Z AUTO 27009G14KT 2 1/2SM -SN BKN019 OVC027 M12/M17 A2988 RMK AO2 VIS 2V3 P0000 FZRANO
  • 062256Z AUTO 26009G15KT 1 1/2SM -SN OVC025 M13/M17 A2987 RMK AO2 SLP123 P0000 T11281172 FZRANO

TAF N/A



MET'MAP, your aeronautical weather chart ! - Copyright ORBIFLY December 2007 - Disclaimer

ORBIFLY MET'MAP TEAM :

Programming & Development : Alexandra Zaïnal
Concept & original design : Baudouin d'Aumeries
Assistance for programming : Marc-Olivier Méhu
Technical & hardware support : Manuel Goepfert

Contact : metmap@orbifly.com




SOURCES & CREDITS :

   NOAA       Earth
Advisory